Time;durP1;ratioP1;P1;durP2;ratioP2;P2;SDS_P1;SDS_P2;PMS_P1;PMS_P2;Temp;Humidity;BMP_temperature;BMP_pressure;BME280_temperature;BME280_humidity;BME280_pressure;Samples;Min_cycle;Max_cycle;Signal;HPM_P1;HPM_P2
2022/03/06 06:26:55;;;;;;;5.25;2.47;;;;;;;1.70;54.43;101202.91;1737776;81;21046;-57
2022/03/06 06:29:23;;;;;;;7.80;2.90;;;;;;;1.71;54.09;101202.03;1735064;81;21166;-57
2022/03/06 06:31:51;;;;;;;5.87;2.60;;;;;;;1.69;54.08;101201.23;1733937;82;21618;-56
2022/03/06 06:34:20;;;;;;;6.92;3.50;;;;;;;1.70;53.36;101205.51;1736763;82;21082;-57
2022/03/06 06:36:49;;;;;;;6.53;3.00;;;;;;;1.69;53.45;101208.56;1735792;80;21584;-57
2022/03/06 06:39:16;;;;;;;6.50;2.75;;;;;;;1.74;53.46;101216.21;1708027;81;21184;-57
2022/03/06 06:41:44;;;;;;;7.55;3.15;;;;;;;1.75;53.64;101216.59;1711095;82;21530;-57
2022/03/06 06:44:12;;;;;;;8.78;3.35;;;;;;;1.84;53.54;101217.63;1722249;82;21113;-57
2022/03/06 06:46:38;;;;;;;7.40;3.65;;;;;;;1.89;53.30;101220.94;1738335;80;21150;-56
2022/03/06 06:49:05;;;;;;;7.40;3.77;;;;;;;1.92;53.12;101219.55;1727553;80;21121;-56
2022/03/06 06:51:34;;;;;;;7.53;3.37;;;;;;;1.92;52.78;101220.01;1713308;81;21558;-56
2022/03/06 06:54:01;;;;;;;6.55;2.77;;;;;;;1.94;52.51;101221.64;1717497;82;21075;-57
2022/03/06 06:56:28;;;;;;;8.03;3.35;;;;;;;1.94;52.82;101220.34;1733254;81;21051;-56
2022/03/06 06:58:55;;;;;;;8.03;3.77;;;;;;;1.97;52.89;101226.75;1732038;82;21039;-57
2022/03/06 07:01:22;;;;;;;7.45;3.55;;;;;;;2.01;52.00;101222.30;1722746;81;21178;-57
2022/03/06 07:03:48;;;;;;;7.22;3.62;;;;;;;2.01;51.77;101229.63;1716442;81;21218;-58
2022/03/06 07:06:17;;;;;;;8.38;4.17;;;;;;;2.01;52.07;101224.44;1715807;82;21065;-56
2022/03/06 07:08:44;;;;;;;7.90;4.22;;;;;;;2.02;52.30;101224.86;1723302;81;21216;-56
2022/03/06 07:11:11;;;;;;;7.62;4.03;;;;;;;2.01;52.30;101225.73;1726447;80;21075;-57
2022/03/06 07:13:39;;;;;;;9.08;3.80;;;;;;;2.06;52.05;101225.61;1718301;82;21705;-57
2022/03/06 07:16:06;;;;;;;9.80;3.98;;;;;;;2.08;52.23;101222.97;1717741;81;21231;-56
2022/03/06 07:18:33;;;;;;;7.75;3.20;;;;;;;2.09;52.11;101218.19;1720756;81;21039;-58
2022/03/06 07:21:02;;;;;;;6.78;3.12;;;;;;;2.10;52.36;101217.27;1780229;78;21065;-57
2022/03/06 07:23:30;;;;;;;7.70;3.10;;;;;;;2.18;52.51;101220.02;1780570;79;21112;-57
2022/03/06 07:25:57;;;;;;;6.08;3.33;;;;;;;2.26;52.40;101219.79;1776212;78;21070;-57
2022/03/06 07:28:25;;;;;;;7.03;2.50;;;;;;;2.35;52.01;101216.04;1771071;79;21266;-57
2022/03/06 07:30:52;;;;;;;6.72;2.72;;;;;;;2.43;51.69;101214.50;1781884;78;21438;-57
2022/03/06 07:33:19;;;;;;;6.55;2.87;;;;;;;2.53;51.19;101216.73;1768135;78;21056;-57
2022/03/06 07:35:47;;;;;;;7.75;3.80;;;;;;;2.53;50.99;101206.80;1782728;78;21169;-57
2022/03/06 07:38:14;;;;;;;7.50;3.35;;;;;;;2.53;51.27;101210.23;1777787;78;21137;-58
2022/03/06 07:40:41;;;;;;;7.65;2.98;;;;;;;2.62;51.38;101214.73;1767010;78;21222;-58
2022/03/06 07:43:08;;;;;;;6.60;3.25;;;;;;;2.72;51.31;101212.22;1773269;79;21035;-57
2022/03/06 07:45:36;;;;;;;7.20;3.27;;;;;;;2.79;50.85;101213.27;1780847;79;21033;-59
2022/03/06 07:48:05;;;;;;;8.70;3.37;;;;;;;2.85;50.79;101212.20;1776715;79;21540;-57
2022/03/06 07:50:32;;;;;;;8.18;3.30;;;;;;;2.93;50.75;101206.75;1769797;78;21073;-57
2022/03/06 07:53:03;;;;;;;8.68;3.27;;;;;;;3.02;50.69;101209.00;1773343;79;21061;-58
2022/03/06 07:55:30;;;;;;;6.95;2.83;;;;;;;3.14;50.12;101211.19;1779107;78;21219;-59
2022/03/06 07:57:57;;;;;;;5.75;2.47;;;;;;;3.16;49.94;101210.67;1778931;78;21151;-58
2022/03/06 08:00:24;;;;;;;5.45;2.27;;;;;;;3.18;49.98;101208.02;1778312;79;21138;-58
2022/03/06 08:02:51;;;;;;;6.35;3.00;;;;;;;3.19;50.00;101207.56;1777373;78;21078;-58
2022/03/06 08:05:22;;;;;;;5.62;2.52;;;;;;;3.23;49.94;101202.63;1774973;79;21790;-58
2022/03/06 08:07:50;;;;;;;6.87;3.10;;;;;;;3.22;49.93;101194.45;1775533;78;21547;-58
2022/03/06 08:10:17;;;;;;;7.92;2.95;;;;;;;3.21;49.88;101196.64;1772878;79;21068;-58
2022/03/06 08:12:49;;;;;;;7.62;3.00;;;;;;;3.17;50.07;101189.41;1780983;79;21551;-59
2022/03/06 08:15:17;;;;;;;5.72;2.22;;;;;;;3.13;50.20;101182.17;1773818;79;21133;-58
2022/03/06 08:17:45;;;;;;;6.72;2.75;;;;;;;3.21;50.17;101184.94;1765520;80;21090;-58
2022/03/06 08:20:12;;;;;;;6.00;2.80;;;;;;;3.29;50.15;101179.84;1781822;79;21037;-58
2022/03/06 08:22:41;;;;;;;6.60;2.40;;;;;;;3.37;49.72;101186.55;1785286;78;21600;-58
2022/03/06 09:12:26;;;;;;;6.58;3.17;;;;;;;3.50;47.86;101149.59;1782298;79;21118;-59
2022/03/06 09:14:55;;;;;;;7.53;3.77;;;;;;;3.48;47.99;101159.22;1777976;78;21204;-58
2022/03/06 09:17:22;;;;;;;8.90;3.35;;;;;;;3.38;47.86;101160.47;1768581;80;21197;-58
2022/03/06 09:19:49;;;;;;;7.00;3.52;;;;;;;3.26;47.97;101159.18;1767711;79;21053;-58
2022/03/06 09:22:17;;;;;;;8.05;3.90;;;;;;;3.14;48.26;101153.98;1772621;79;21022;-57
2022/03/06 09:24:45;;;;;;;8.33;3.42;;;;;;;3.11;48.79;101149.31;1778498;78;21490;-58
2022/03/06 09:27:12;;;;;;;9.18;3.27;;;;;;;3.12;48.90;101149.27;1777052;78;21026;-58
2022/03/06 09:29:39;;;;;;;6.83;3.05;;;;;;;3.12;49.00;101153.62;1780525;78;21208;-58
2022/03/06 09:32:06;;;;;;;6.12;2.50;;;;;;;3.13;48.79;101158.77;1769381;78;21042;-58
2022/03/06 09:34:37;;;;;;;5.25;2.75;;;;;;;3.10;48.50;101158.04;1785977;78;21566;-58
2022/03/06 09:37:04;;;;;;;7.75;3.08;;;;;;;3.04;48.94;101160.39;1783075;78;21253;-58
2022/03/06 09:39:31;;;;;;;6.10;2.42;;;;;;;3.07;48.74;101165.48;1778625;78;21053;-59
2022/03/06 09:41:58;;;;;;;6.22;2.98;;;;;;;3.09;48.39;101162.41;1775458;78;21107;-58
2022/03/06 09:44:36;;;;;;;8.10;3.35;;;;;;;3.08;48.74;101163.30;1790616;78;21637;-59
2022/03/06 09:47:06;;;;;;;7.37;4.00;;;;;;;3.07;48.91;101161.59;1780029;79;21065;-58
2022/03/06 09:49:38;;;;;;;10.63;3.35;;;;;;;3.08;49.13;101163.75;1782130;79;21493;-58
2022/03/06 09:52:06;;;;;;;7.20;3.70;;;;;;;3.04;49.35;101164.29;1772443;78;21047;-58
2022/03/06 09:54:34;;;;;;;7.72;3.70;;;;;;;3.05;49.36;101164.70;1780598;78;21591;-60
2022/03/06 09:57:01;;;;;;;7.30;2.83;;;;;;;3.07;49.16;101158.14;1772640;78;21042;-58
2022/03/06 09:59:31;;;;;;;8.00;3.37;;;;;;;3.10;49.12;101154.98;1781143;79;21613;-59
2022/03/06 10:02:03;;;;;;;6.37;2.92;;;;;;;3.14;48.97;101154.41;1779694;78;21629;-58
2022/03/06 10:04:34;;;;;;;7.28;2.98;;;;;;;3.20;49.09;101156.80;1779114;78;21541;-58
2022/03/06 10:07:06;;;;;;;6.15;2.45;;;;;;;3.21;48.39;101152.43;1768466;78;21093;-59
2022/03/06 10:09:47;;;;;;;6.60;2.92;;;;;;;3.21;47.96;101149.83;1771308;79;21090;-58
2022/03/06 10:12:30;;;;;;;7.00;2.70;;;;;;;3.17;47.82;101150.40;1746980;80;21054;-59
2022/03/06 10:15:05;;;;;;;6.20;2.80;;;;;;;3.13;47.77;101145.77;1777366;79;28375;-58
2022/03/06 10:17:33;;;;;;;5.87;2.77;;;;;;;3.13;47.59;101144.47;1771236;79;21038;-58
2022/03/06 10:20:09;;;;;;;7.03;2.87;;;;;;;3.12;47.56;101146.66;1770959;79;21116;-59
2022/03/06 10:22:47;;;;;;;6.55;3.20;;;;;;;3.14;47.30;101140.98;1776892;78;21602;-59
2022/03/06 10:25:19;;;;;;;8.15;2.92;;;;;;;3.13;47.08;101137.97;1777755;79;21159;-58
2022/03/06 10:27:57;;;;;;;6.62;3.25;;;;;;;3.14;47.26;101133.60;1753868;79;21510;-58
2022/03/06 10:30:32;;;;;;;5.55;2.77;;;;;;;3.12;47.39;101131.52;1770095;78;21557;-57
2022/03/06 10:33:20;;;;;;;5.60;2.42;;;;;;;3.14;47.57;101127.97;1768738;78;21224;-58
2022/03/06 10:35:50;;;;;;;12.90;3.00;;;;;;;3.18;47.43;101126.53;1744171;80;21538;-59
2022/03/06 10:38:30;;;;;;;5.85;3.02;;;;;;;3.26;45.70;101133.59;1778325;78;21031;-59
2022/03/06 10:41:15;;;;;;;5.95;2.30;;;;;;;3.23;44.72;101132.41;1771323;78;21096;-58
2022/03/06 10:43:45;;;;;;;8.20;3.08;;;;;;;3.16;45.09;101122.69;1762940;78;21093;-59
2022/03/06 10:46:18;;;;;;;5.58;2.58;;;;;;;3.15;45.19;101123.61;1756466;79;21605;-59
2022/03/06 10:48:56;;;;;;;8.43;3.30;;;;;;;3.16;44.91;101120.95;1777530;79;21090;-59
2022/03/06 10:51:24;;;;;;;7.67;3.35;;;;;;;3.17;45.19;101123.09;1779375;79;21037;-59
2022/03/06 10:53:59;;;;;;;7.17;3.62;;;;;;;3.15;45.25;101119.25;1774636;78;21608;-59
2022/03/06 10:56:27;;;;;;;7.25;2.80;;;;;;;3.18;45.29;101120.03;1774944;79;21053;-58
2022/03/06 10:58:56;;;;;;;5.85;3.10;;;;;;;3.21;45.16;101119.92;1774060;78;21571;-59
2022/03/06 11:01:27;;;;;;;7.58;3.60;;;;;;;3.19;45.39;101120.44;1771711;78;21078;-60
2022/03/06 11:03:54;;;;;;;7.03;3.33;;;;;;;3.21;45.59;101112.12;1778864;78;21093;-59
2022/03/06 11:06:24;;;;;;;7.33;3.58;;;;;;;3.22;45.34;101115.97;1775876;79;21164;-58
2022/03/06 11:08:54;;;;;;;7.67;3.27;;;;;;;3.20;45.26;101116.48;1775978;79;21033;-59
2022/03/06 11:11:22;;;;;;;7.12;3.80;;;;;;;3.20;45.58;101117.78;1777042;78;21555;-59
2022/03/06 12:16:08;;;;;;;5.92;2.87;;;;;;;4.68;39.61;101047.94;1685914;80;22045;-57
2022/03/06 12:18:36;;;;;;;7.10;3.15;;;;;;;4.85;39.22;101051.08;1684862;83;20967;-56
2022/03/06 12:21:19;;;;;;;7.42;3.12;;;;;;;4.76;38.84;101053.65;1704769;83;21131;-57
2022/03/06 12:23:48;;;;;;;7.10;3.40;;;;;;;4.60;38.82;101053.47;1679196;83;21502;-59
2022/03/06 12:26:16;;;;;;;6.58;3.40;;;;;;;4.37;39.12;101045.82;1722805;81;21655;-57
2022/03/06 12:28:44;;;;;;;7.67;3.67;;;;;;;4.20;39.41;101046.12;1661122;82;21579;-57
2022/03/06 12:31:32;;;;;;;7.00;2.62;;;;;;;4.05;38.92;101043.70;1667800;83;21750;-59
2022/03/06 12:34:01;;;;;;;6.62;2.55;;;;;;;3.89;39.58;101042.18;1721781;81;21880;-58
2022/03/06 12:36:30;;;;;;;6.85;3.20;;;;;;;3.76;40.21;101038.39;1720277;82;21566;-58
2022/03/06 12:39:02;;;;;;;6.53;2.33;;;;;;;3.68;40.36;101036.55;1686304;82;21598;-58
2022/03/06 12:41:32;;;;;;;7.72;2.95;;;;;;;3.58;40.30;101033.94;1716781;82;21121;-58
2022/03/06 12:44:06;;;;;;;7.20;2.83;;;;;;;3.51;40.52;101032.91;1690861;83;21650;-57
2022/03/06 12:46:35;;;;;;;6.33;2.70;;;;;;;3.43;40.26;101029.76;1679843;84;21625;-58
2022/03/06 12:49:02;;;;;;;6.03;2.77;;;;;;;3.33;40.60;101036.23;1695725;81;21041;-58
2022/03/06 12:51:33;;;;;;;8.03;2.87;;;;;;;3.30;40.67;101028.09;1693241;82;21083;-58
2022/03/06 12:54:02;;;;;;;6.08;2.87;;;;;;;3.28;40.99;101034.27;1694276;83;21554;-59
2022/03/06 12:56:36;;;;;;;8.20;4.05;;;;;;;3.29;41.28;101031.58;1714120;81;21580;-57
2022/03/06 12:59:07;;;;;;;7.30;2.98;;;;;;;3.31;41.69;101027.19;1686660;84;21074;-58
2022/03/06 13:01:54;;;;;;;10.40;4.03;;;;;;;3.31;41.22;101025.02;1706737;81;21094;-56
2022/03/06 13:04:25;;;;;;;6.50;2.80;;;;;;;3.28;41.37;101027.77;1691451;82;21073;-57
2022/03/06 13:06:54;;;;;;;6.08;3.08;;;;;;;3.21;41.51;101021.09;1687980;83;21570;-60
2022/03/06 13:09:28;;;;;;;8.13;3.65;;;;;;;3.18;41.83;101022.50;1694595;82;21462;-57
2022/03/06 13:11:58;;;;;;;6.33;3.00;;;;;;;3.21;42.14;101024.98;1665239;83;21553;-58
2022/03/06 13:14:30;;;;;;;6.05;2.55;;;;;;;3.22;41.70;101021.49;1692682;82;21594;-58
2022/03/06 13:16:58;;;;;;;5.72;2.40;;;;;;;3.20;41.31;101019.41;1668513;82;21538;-57
2022/03/06 13:19:25;;;;;;;4.75;1.85;;;;;;;3.19;41.64;101009.91;1685225;83;21119;-58
2022/03/06 13:21:54;;;;;;;6.67;2.00;;;;;;;3.21;41.68;101008.09;1679017;82;21593;-58
2022/03/06 13:24:25;;;;;;;5.37;2.08;;;;;;;3.24;41.40;101005.37;1672071;82;21710;-57
2022/03/06 13:26:55;;;;;;;4.87;1.65;;;;;;;3.25;41.46;101006.61;1715989;81;21169;-58
2022/03/06 13:29:24;;;;;;;4.70;1.95;;;;;;;3.25;40.84;100996.67;1664541;83;21585;-58
2022/03/06 13:31:56;;;;;;;5.95;2.67;;;;;;;3.22;41.08;101003.29;1704615;82;21691;-57
2022/03/06 13:34:26;;;;;;;4.92;1.77;;;;;;;3.23;41.04;100999.33;1667561;84;22007;-56
2022/03/06 13:36:53;;;;;;;7.03;1.90;;;;;;;3.25;40.73;100996.20;1709262;82;21120;-56
2022/03/06 13:39:23;;;;;;;3.33;1.07;;;;;;;3.27;40.53;100996.98;1704143;82;21130;-55
2022/03/06 13:41:58;;;;;;;4.45;1.40;;;;;;;3.24;40.09;100993.66;1689202;83;21110;-58
2022/03/06 13:44:25;;;;;;;2.77;1.27;;;;;;;3.20;39.96;100998.61;1680129;83;21119;-58
2022/03/06 13:46:53;;;;;;;3.45;1.32;;;;;;;3.13;39.97;100992.80;1683830;83;21112;-58
2022/03/06 13:49:23;;;;;;;3.80;1.37;;;;;;;3.10;40.17;100987.72;1675822;83;21590;-59
2022/03/06 13:52:06;;;;;;;2.98;1.02;;;;;;;3.10;40.55;100989.86;1702627;81;21558;-57
2022/03/06 13:54:36;;;;;;;4.28;1.55;;;;;;;3.14;40.54;100989.27;1686444;83;21100;-57
2022/03/06 13:57:06;;;;;;;3.72;1.30;;;;;;;3.12;40.71;100986.73;1678152;83;21676;-56
2022/03/06 13:59:36;;;;;;;3.20;1.10;;;;;;;3.10;40.85;100987.25;1663709;85;21639;-59
2022/03/06 14:02:08;;;;;;;3.58;1.20;;;;;;;3.09;41.07;100984.28;1668349;83;21095;-58
2022/03/06 14:04:36;;;;;;;4.60;1.25;;;;;;;3.08;41.06;100981.27;1678235;83;21068;-56
2022/03/06 14:07:11;;;;;;;3.20;1.10;;;;;;;3.04;41.34;100987.48;1701219;82;21015;-58
2022/03/06 14:09:48;;;;;;;3.22;1.32;;;;;;;3.01;41.75;100987.62;1701477;82;21119;-59
2022/03/06 14:12:20;;;;;;;3.98;1.27;;;;;;;3.00;41.71;100992.89;1698295;81;21028;-57
2022/03/06 14:14:48;;;;;;;4.35;1.55;;;;;;;2.96;41.72;100986.96;1731095;80;21218;-58
2022/03/06 14:17:21;;;;;;;3.72;1.10;;;;;;;2.94;41.90;100978.34;1734822;80;21527;-58
2022/03/06 14:19:58;;;;;;;5.10;1.25;;;;;;;2.93;42.26;100977.52;1741710;80;21523;-57
2022/03/06 14:22:25;;;;;;;3.47;1.42;;;;;;;2.98;42.24;100979.94;1739708;80;21138;-58
2022/03/06 14:24:53;;;;;;;3.87;1.52;;;;;;;2.98;42.22;100966.48;1729448;80;21205;-58
2022/03/06 14:27:21;;;;;;;5.50;1.62;;;;;;;3.00;42.48;100969.48;1727041;80;21182;-58
2022/03/06 14:29:48;;;;;;;8.35;2.40;;;;;;;2.98;42.44;100964.34;1725558;81;21066;-57
2022/03/06 14:32:20;;;;;;;4.28;1.40;;;;;;;2.99;42.66;100968.62;1717854;80;21787;-58
2022/03/06 14:34:47;;;;;;;5.87;1.90;;;;;;;3.02;42.49;100962.47;1746187;80;21103;-59
2022/03/06 14:37:14;;;;;;;3.58;1.37;;;;;;;3.01;42.23;100965.53;1716863;80;21163;-58
2022/03/06 14:39:42;;;;;;;4.05;1.52;;;;;;;2.96;42.54;100963.10;1704789;82;21099;-59
2022/03/06 14:42:11;;;;;;;4.22;1.27;;;;;;;2.96;42.79;100963.56;1727394;80;21703;-58
2022/03/06 14:44:41;;;;;;;6.25;1.90;;;;;;;2.95;42.74;100961.86;1740820;80;21050;-58
2022/03/06 14:47:15;;;;;;;5.97;2.30;;;;;;;2.94;42.53;100967.95;1725636;80;21726;-58
2022/03/06 14:49:43;;;;;;;3.75;1.65;;;;;;;2.89;42.56;100968.16;1733780;80;21577;-58
2022/03/06 14:52:11;;;;;;;5.75;1.77;;;;;;;2.84;42.87;100970.52;1722468;80;21574;-58
2022/03/06 14:54:40;;;;;;;5.42;2.02;;;;;;;2.77;43.19;100957.78;1698134;81;21700;-58
2022/03/06 14:57:07;;;;;;;4.90;1.92;;;;;;;2.72;43.25;100956.23;1736071;80;21144;-58
2022/03/06 14:59:35;;;;;;;4.75;1.72;;;;;;;2.71;43.28;100954.56;1734607;80;21151;-59
2022/03/06 15:14:30;;;;;;;4.45;1.85;;;;;;;2.68;43.87;100946.88;1705212;81;21094;-58
2022/03/06 15:16:57;;;;;;;3.02;1.42;;;;;;;2.69;43.63;100950.72;1737801;80;21074;-58
2022/03/06 15:19:26;;;;;;;4.47;1.40;;;;;;;2.67;43.62;100942.11;1712745;81;21861;-58
2022/03/06 15:21:55;;;;;;;4.65;1.62;;;;;;;2.66;43.70;100938.30;1730275;80;21542;-58
2022/03/06 15:24:23;;;;;;;6.37;1.80;;;;;;;2.66;43.48;100937.84;1711398;82;21187;-58
2022/03/06 15:26:56;;;;;;;6.28;1.70;;;;;;;2.66;43.31;100931.81;1715449;81;21205;-58
2022/03/06 15:29:25;;;;;;;3.37;1.22;;;;;;;2.62;43.50;100938.01;1724295;80;21143;-58
2022/03/06 15:31:56;;;;;;;4.12;1.45;;;;;;;2.63;43.68;100937.95;1728677;80;21672;-58
2022/03/06 15:34:27;;;;;;;5.78;1.80;;;;;;;2.63;43.82;100928.02;1726867;81;21093;-58
2022/03/06 15:36:58;;;;;;;4.58;1.82;;;;;;;2.65;43.82;100934.00;1737986;80;21543;-58
2022/03/06 15:39:27;;;;;;;5.10;1.70;;;;;;;2.67;43.89;100928.28;1731958;80;21590;-58
2022/03/06 15:41:54;;;;;;;4.05;1.37;;;;;;;2.68;43.83;100920.43;1720535;80;21075;-59
2022/03/06 15:44:21;;;;;;;4.08;1.30;;;;;;;2.72;43.84;100919.86;1723527;81;21258;-59
2022/03/06 15:46:48;;;;;;;3.90;1.62;;;;;;;2.72;43.68;100918.56;1734831;80;21606;-58
2022/03/06 15:49:21;;;;;;;4.30;1.72;;;;;;;2.73;43.64;100918.97;1740575;80;21031;-59
2022/03/06 15:51:51;;;;;;;3.95;1.25;;;;;;;2.72;43.55;100910.77;1726731;80;21701;-59
2022/03/06 15:54:18;;;;;;;4.28;1.25;;;;;;;2.70;43.65;100910.82;1732016;80;21183;-58
2022/03/06 15:56:52;;;;;;;4.20;1.45;;;;;;;2.71;43.73;100907.79;1719235;80;21035;-58
2022/03/06 15:59:21;;;;;;;4.50;1.42;;;;;;;2.71;44.00;100909.92;1720743;80;21051;-59
2022/03/06 16:01:53;;;;;;;4.80;1.90;;;;;;;2.72;43.97;100907.73;1722873;81;21645;-59
2022/03/06 16:04:22;;;;;;;5.95;1.80;;;;;;;2.72;43.84;100903.83;1681695;82;21166;-60
2022/03/06 16:06:49;;;;;;;4.53;1.95;;;;;;;2.73;43.93;100902.91;1727438;81;21135;-59
2022/03/06 16:09:19;;;;;;;3.60;1.12;;;;;;;2.72;43.84;100901.23;1744140;80;21305;-59
2022/03/06 16:11:46;;;;;;;4.62;1.75;;;;;;;2.73;43.97;100905.51;1725185;80;21102;-59
2022/03/06 16:14:15;;;;;;;4.35;1.82;;;;;;;2.73;43.96;100900.31;1730023;80;22224;-59
2022/03/06 16:16:42;;;;;;;6.20;2.52;;;;;;;2.75;44.12;100902.39;1718923;80;21043;-58
2022/03/06 16:19:10;;;;;;;5.70;2.20;;;;;;;2.77;44.12;100903.20;1728668;81;21110;-58
2022/03/06 16:21:39;;;;;;;4.33;1.60;;;;;;;2.81;44.20;100907.82;1699086;81;21559;-58
2022/03/06 16:24:06;;;;;;;3.90;1.57;;;;;;;2.81;44.10;100908.25;1738476;80;21111;-59
2022/03/06 16:26:37;;;;;;;4.60;2.02;;;;;;;2.81;44.06;100910.84;1729977;80;21078;-59
2022/03/06 16:29:06;;;;;;;3.95;1.67;;;;;;;2.79;44.10;100910.48;1723080;81;21668;-59
2022/03/06 16:31:39;;;;;;;5.30;2.00;;;;;;;2.81;44.16;100906.95;1730689;80;21074;-59
2022/03/06 16:34:07;;;;;;;6.37;2.22;;;;;;;2.82;44.22;100915.98;1722738;80;21226;-57
2022/03/06 16:36:36;;;;;;;4.08;1.70;;;;;;;2.84;44.25;100915.50;1732443;80;21589;-59
2022/03/06 16:39:08;;;;;;;5.37;2.30;;;;;;;2.84;44.56;100911.60;1730562;81;21031;-59
2022/03/06 16:41:35;;;;;;;6.08;1.95;;;;;;;2.87;44.37;100915.81;1736242;80;21024;-59
2022/03/06 16:44:06;;;;;;;4.60;2.02;;;;;;;2.87;44.31;100915.81;1734100;80;21053;-59
2022/03/06 16:46:34;;;;;;;5.47;1.92;;;;;;;2.85;44.53;100914.58;1735597;80;21540;-58
2022/03/06 16:49:01;;;;;;;4.10;1.77;;;;;;;2.85;44.47;100911.14;1729293;80;21037;-58
2022/03/06 16:51:28;;;;;;;5.20;2.12;;;;;;;2.82;44.65;100906.89;1718568;81;21187;-58
2022/03/06 16:53:57;;;;;;;4.58;1.70;;;;;;;2.84;44.80;100904.23;1734337;80;22272;-59
2022/03/06 16:56:26;;;;;;;4.47;1.85;;;;;;;2.83;44.76;100905.16;1697575;81;21693;-59
2022/03/06 16:58:55;;;;;;;4.67;2.35;;;;;;;2.83;44.83;100903.86;1723535;80;21551;-59
2022/03/06 17:01:23;;;;;;;5.17;2.52;;;;;;;2.81;44.94;100910.84;1722790;81;21130;-59
2022/03/06 17:03:50;;;;;;;6.10;2.50;;;;;;;2.81;44.98;100903.92;1738900;81;21073;-59
2022/03/06 17:06:19;;;;;;;7.55;2.40;;;;;;;2.82;45.02;100900.39;1723859;81;21514;-59
2022/03/06 17:08:50;;;;;;;5.10;2.00;;;;;;;2.83;44.97;100896.06;1734222;80;21057;-59
2022/03/06 17:11:19;;;;;;;4.22;1.95;;;;;;;2.81;44.97;100900.45;1719495;81;21569;-59
2022/03/06 19:28:38;;;;;;;;;;;;;;;1.97;48.98;100846.48;1722829;80;21007;-59
2022/03/06 19:31:10;;;;;;;8.98;4.10;;;;;;;1.97;49.02;100842.59;1738374;80;20224;-59
2022/03/06 19:33:39;;;;;;;8.65;4.33;;;;;;;1.92;49.22;100840.63;1745080;80;21071;-60
2022/03/06 19:36:07;;;;;;;9.30;4.53;;;;;;;1.92;49.31;100838.02;1728532;81;21668;-58
2022/03/06 19:38:34;;;;;;;7.92;4.08;;;;;;;1.92;49.22;100838.48;1731337;80;21056;-59
2022/03/06 19:41:06;;;;;;;9.55;4.65;;;;;;;1.91;49.15;100836.31;1755359;80;21561;-58
2022/03/06 19:43:34;;;;;;;8.98;4.67;;;;;;;1.92;49.26;100835.42;1729499;80;21560;-59
2022/03/06 19:46:08;;;;;;;7.53;4.10;;;;;;;1.95;49.19;100831.86;1717895;81;21065;-59
2022/03/06 19:48:41;;;;;;;10.05;4.17;;;;;;;1.96;49.21;100830.97;1732808;80;21017;-59
2022/03/06 19:51:09;;;;;;;8.63;4.30;;;;;;;1.96;49.09;100830.97;1723508;80;21538;-59
2022/03/06 19:53:36;;;;;;;9.85;4.60;;;;;;;1.98;49.08;100823.96;1724001;80;21141;-59
2022/03/06 19:56:05;;;;;;;7.78;4.28;;;;;;;1.98;49.02;100827.86;1707702;81;21543;-59
2022/03/06 19:58:32;;;;;;;8.75;4.30;;;;;;;1.98;49.01;100827.39;1735649;80;21080;-59
2022/03/06 20:01:05;;;;;;;9.63;4.17;;;;;;;1.96;49.03;100820.58;1722493;82;21100;-60
2022/03/06 20:03:34;;;;;;;9.78;4.67;;;;;;;1.96;49.17;100814.09;1706240;81;21535;-59
2022/03/06 20:06:03;;;;;;;10.13;4.80;;;;;;;1.98;49.20;100805.33;1721564;80;22430;-59
2022/03/06 20:08:30;;;;;;;9.38;4.47;;;;;;;1.97;49.15;100808.02;1735823;81;21153;-59
2022/03/06 20:10:58;;;;;;;8.28;4.08;;;;;;;1.96;49.12;100809.74;1744673;81;22513;-59
2022/03/06 20:13:27;;;;;;;9.98;4.95;;;;;;;1.97;49.24;100802.83;1731243;81;21583;-59
2022/03/06 20:15:56;;;;;;;11.03;5.20;;;;;;;1.97;49.19;100801.06;1735547;80;21164;-59
2022/03/06 20:18:23;;;;;;;10.68;4.83;;;;;;;1.98;49.12;100796.70;1728964;80;21162;-59
2022/03/06 20:20:52;;;;;;;9.70;4.47;;;;;;;1.93;49.21;100804.66;1723423;80;21586;-60
2022/03/06 20:23:19;;;;;;;9.43;4.85;;;;;;;1.89;49.25;100801.80;1734602;80;21055;-59
2022/03/06 20:25:46;;;;;;;7.65;4.70;;;;;;;1.85;49.31;100798.94;1732982;80;21385;-59
2022/03/06 20:28:13;;;;;;;10.13;3.98;;;;;;;1.85;49.45;100797.64;1732571;80;21089;-59
2022/03/06 20:30:41;;;;;;;9.35;4.70;;;;;;;1.85;49.57;100796.34;1739163;81;21569;-59
2022/03/06 20:33:10;;;;;;;9.78;4.95;;;;;;;1.88;49.66;100791.02;1738719;80;21129;-59
2022/03/06 20:35:41;;;;;;;11.10;4.70;;;;;;;1.89;49.57;100795.31;1726555;81;21502;-59
2022/03/06 20:38:10;;;;;;;8.88;4.45;;;;;;;1.89;49.53;100788.83;1733076;80;21610;-59
2022/03/06 20:40:38;;;;;;;8.73;4.50;;;;;;;1.89;49.57;100788.83;1721502;81;21494;-59
2022/03/06 20:43:05;;;;;;;8.15;3.90;;;;;;;1.88;49.69;100786.28;1721972;81;21098;-59
2022/03/06 20:45:35;;;;;;;9.65;4.62;;;;;;;1.90;49.82;100790.95;1732560;81;21231;-59
2022/03/06 20:48:05;;;;;;;9.58;4.15;;;;;;;1.93;49.80;100786.49;1726655;80;21611;-59
2022/03/06 20:50:39;;;;;;;14.75;5.87;;;;;;;1.97;49.81;100789.38;1694113;82;21109;-59
2022/03/06 20:53:07;;;;;;;8.98;4.67;;;;;;;2.01;49.78;100786.22;1672816;83;21055;-59
2022/03/06 20:55:34;;;;;;;8.00;4.20;;;;;;;2.03;49.80;100789.16;1675899;83;21049;-59
2022/03/06 20:58:08;;;;;;;10.43;5.25;;;;;;;2.01;49.73;100790.11;1673251;83;21191;-60
2022/03/06 21:00:36;;;;;;;9.65;5.42;;;;;;;1.98;49.84;100787.16;1672172;83;21517;-59
2022/03/06 21:03:03;;;;;;;7.97;4.80;;;;;;;1.97;49.86;100785.49;1657894;83;21102;-58
2022/03/06 21:05:32;;;;;;;8.78;5.03;;;;;;;1.98;49.89;100784.56;1681629;82;21553;-60
2022/03/06 21:08:02;;;;;;;8.20;4.20;;;;;;;1.98;49.85;100785.86;1734886;80;21565;-58
2022/03/06 21:10:30;;;;;;;8.55;4.92;;;;;;;1.97;50.01;100779.47;1717201;81;21640;-58
2022/03/06 21:12:59;;;;;;;8.70;4.42;;;;;;;1.95;49.92;100778.66;1745667;80;22198;-59
2022/03/06 21:15:28;;;;;;;10.48;5.55;;;;;;;1.95;50.04;100782.11;1724239;80;21525;-59
2022/03/06 21:17:56;;;;;;;8.63;4.50;;;;;;;1.95;50.15;100777.35;1734579;80;21733;-58
2022/03/06 21:20:23;;;;;;;8.33;4.55;;;;;;;1.97;50.17;100776.87;1740301;81;21149;-59
2022/03/06 21:22:50;;;;;;;10.13;4.50;;;;;;;1.95;50.00;100778.66;1741185;80;21123;-59
2022/03/06 21:25:22;;;;;;;10.15;4.78;;;;;;;1.91;50.17;100775.33;1708097;82;21623;-60
